Share

Albee, SD

9:36 AM CDT on April 23, 2014 (GMT -0500)
Madison-Lac Qui Parle County (KDXX) Elev 1083 ft | 44.98 °N, 96.18 °W | Change Station
Active Advisory: Wind Advisory Active Notice: Public Information Statement

Current weather conditions updated 22 minutes ago

Light Rain
Light Rain
46 °F
Feels Like 39 °F
N
21
Wind Variable Wind from SE
Gusts 30 mph
Sunrise 6:27 AM
Sunset 8:21 PM
Moon Waning Crescent

Today is forecast to be Much Cooler than yesterday. A few morning showers.

Pressure 29.92 in
Visibility 10.0 miles
Clouds Scattered Clouds 2700 ft
Scattered Clouds 3500 ft
Mostly Cloudy 9000 ft
Windchill 39 °F
Dew Point 39 °F
Humidity 76%
Rainfall 0.08 in
Snow Depth Not available.
UV 2 out of 16
Pollen 8.60 out of 12
Air Quality Not available.
Flu Activity Sporadic
METAR KDXX 231414Z AUTO 13018G26KT 10SM -RA SCT027 SCT035 BKN090 08/04 A2992 RMK AO2 P0001

More Conditions Fewer Conditions

Pressure 29.92 in
Visibility 10.0 miles
Clouds Scattered Clouds 2700 ft
Scattered Clouds 3500 ft
Mostly Cloudy 9000 ft
Windchill 39 °F
Dew Point 39 °F
Humidity 76%
Rainfall 0.08 in
Snow Depth Not available.
UV 2 out of 16
Pollen 8.60 out of 12
Air Quality Not available.
Flu Activity Sporadic
METAR KDXX 231414Z AUTO 13018G26KT 10SM -RA SCT027 SCT035 BKN090 08/04 A2992 RMK AO2 P0001

More Conditions Fewer Conditions

10-Day Weather Forecast

Almanac

Astronomy

Apr. 23, 2014 Rise Set
Actual Time 6:27 AM CDT 8:21 PM CDT
Civil Twilight 5:56 AM CDT 8:53 PM CDT
Nautical Twilight 5:17 AM CDT 9:32 PM CDT
Astronomical Twilight 4:35 AM CDT 10:14 PM CDT
Moon 3:16 AM CDT 2:16 PM CDT
Length of Visible Light 14h 57m
Length of Day
13h 54m
Tomorrow will be 2m 52s longer.
Waning Crescent, 36% of the Moon is Illuminated
Today
Waning Crescent
Apr 29
New
May 6
First Quarter
May 14
Full
May 21
Last Quarter

Today's Extremes

State Highs State Lows

Community

  • spring flowers
    spring flowers
  • Earth Day Spectrum Ove' Blue
    Earth Day Spectrum Ove' Blue
  • BARN B&W
    BARN B&W
  • April Sunset
    April Sunset
  • Waiting..
    Waiting..

WunderPhotos

Upload Photos

1,704,296 photos uploaded!

Nearby

Snow Depth

Station Depth Elevation
North Rapid Creek 12 in 6130 ft
Blind Park 13 in 6890 ft

Coastal Water Temperatures

Place Temperature
No Stations Reporting

Earthquake Activity

City Distance Mag. Time & Date
No recent earthquake activity has been reported nearby.
Minimum magnitude displayed is 2.5.

Nearby Weather Stations

Station Location Temp. Windchill Dew Point Humidity Wind Precip. Elev Updated Type
NonFedAWOS MILBANK , Milbank, SD 45 °F 45 °F 37 °F 76% North  at  - 0.00 in / hr 1116 ft 8:55 AM CDT MADIS
RAWS BIG STONE NWR MN, Odessa, MN 44 °F 37 °F 39 °F 83% ESE  at  14 mph 0.00 in / hr 877 ft 8:51 AM CDT MADIS

Show More Stations Show Fewer Stations

What do you think?

We're not finished. Please let us know what you like, what you don't like, and what you are still missing.